Hauptseite
METAR-TAF:

METAR-TAF

Flughäfen :

Thule, Grönland

Thule Air Base

Breite: 76-32N, Länge: 068-42W, Höhe: 77 m

Beobachtung

Neuester Wetterbericht von vor 1 Stunde und 0 Minuten, um 22:58 UTC
Wind 8 kt aus Ost
Temperatur -27°C
Luftfeuchtigkeit 69%
Luftdruck 998 hPa
Sichtweite 10 km oder mehr
Himmel klar

METAR: BGTL 242258Z AUTO 10008KT 9999 CLR M27/M31 A2948 RMK AO2 SLP976 T12711313

Zeit: 20:58 (23:58 UTC)

Prognose

Neuester Wetterbericht von vor 6 Stunden und 58 Minuten, um 17:00 UTC
Gültige Prognose vom 24 um 17 UTC bis 25 um 23 UTC
Wind 9 kt aus Ost, variierte zwischen Ost/Nordost und Südost
Sichtweite 10 km oder mehr
Himmel klar

TAF: BGTL 241700Z 2417/2523 09009KT 9999 SKC QNH2945INS WND 060V130 TXM23/2418Z TNM27/2511Z

Wetterbeobachtungen und Prognosen von mehr als 4000 Flughäfen (METAR und TAF Bericht).

Die verfügbaren Stationen werden durch gelbe und rote Markierungen auf der Karte dargestellt.

Führen Sie die Maus auf sie, um den Namen der Station zu sehen.

Darauf klicken, um die Beobachtung von Wetterbeobachtungen und Prognosen zu sehen.

Um die Karte zu ändern : klicken Sie auf den grünen Tasten mit einem schwarzen Kreuz Zum Vergrößern, auf den grünen Button mit einem Gedankenstrich zu verkleinern, oder auf die grünen Pfeile für benachbarte Karten.


METAR-TAF: